createdAt,value
2022-09-28T00:00:49.096Z,96754.50
2022-09-28T00:01:53.672Z,96752.28
2022-09-28T00:02:58.326Z,96751.16
2022-09-28T00:03:59.990Z,96753.00
2022-09-28T00:05:02.408Z,96753.75
2022-09-28T00:06:07.241Z,96752.59
2022-09-28T00:07:08.768Z,96741.31
2022-09-28T00:08:10.167Z,96739.81
2022-09-28T00:09:11.642Z,96739.00
2022-09-28T00:10:13.125Z,96730.38
2022-09-28T00:11:15.724Z,96738.28
2022-09-28T00:12:17.137Z,96729.34
2022-09-28T00:13:18.633Z,96730.09
2022-09-28T00:14:21.168Z,96730.09
2022-09-28T00:15:24.423Z,96729.41
2022-09-28T00:16:28.912Z,96729.72
2022-09-28T00:17:30.408Z,96727.44
2022-09-28T00:18:32.295Z,96721.41
2022-09-28T00:19:34.240Z,96721.34
2022-09-28T00:20:35.652Z,96717.22
2022-09-28T00:21:39.097Z,96715.00
2022-09-28T00:22:40.543Z,96709.34
2022-09-28T00:24:01.201Z,96710.06
2022-09-28T00:25:02.710Z,96712.69
2022-09-28T00:26:05.653Z,96715.78
2022-09-28T00:27:07.464Z,96711.72
2022-09-28T00:28:08.951Z,96711.31
2022-09-28T00:29:16.609Z,96710.19
2022-09-28T00:30:18.276Z,96701.59
2022-09-28T00:31:20.349Z,96704.19
2022-09-28T00:32:24.596Z,96698.94
2022-09-28T00:33:26.013Z,96696.28
2022-09-28T00:34:31.264Z,96688.31
2022-09-28T00:35:32.706Z,96687.19
2022-09-28T00:36:35.250Z,96687.56
2022-09-28T00:37:36.660Z,96680.84
2022-09-28T00:38:40.588Z,96680.13
2022-09-28T00:39:42.303Z,96682.75
2022-09-28T00:40:43.803Z,96670.75
2022-09-28T00:41:46.425Z,96665.84
2022-09-28T00:42:47.854Z,96674.81
2022-09-28T00:43:49.398Z,96670.69
2022-09-28T00:44:57.733Z,96677.88
2022-09-28T00:46:04.016Z,96675.25
2022-09-28T00:47:34.680Z,96685.03
2022-09-28T00:48:39.964Z,96684.28
2022-09-28T00:50:11.972Z,96673.00
2022-09-28T00:51:13.957Z,96682.00
2022-09-28T00:52:23.056Z,96667.75
2022-09-28T00:53:26.545Z,96672.97
2022-09-28T00:54:28.433Z,96665.47
2022-09-28T00:55:41.135Z,96663.25
2022-09-28T00:56:46.569Z,96658.72
2022-09-28T00:57:53.131Z,96653.06
2022-09-28T00:58:55.089Z,96651.94
2022-09-28T00:59:56.964Z,96645.53
2022-09-28T01:00:59.927Z,96657.53
2022-09-28T01:02:01.846Z,96659.03
2022-09-28T01:03:03.997Z,96656.72
2022-09-28T01:04:06.384Z,96655.22
2022-09-28T01:05:10.366Z,96657.88
2022-09-28T01:06:18.558Z,96648.16
2022-09-28T01:07:21.504Z,96645.13
2022-09-28T01:08:25.008Z,96640.59
2022-09-28T01:09:27.658Z,96638.31
2022-09-28T01:10:31.105Z,96639.13
2022-09-28T01:11:34.244Z,96638.38
2022-09-28T01:12:35.853Z,96639.53
2022-09-28T01:13:38.169Z,96632.38
2022-09-28T01:14:41.191Z,96630.88
2022-09-28T01:15:51.915Z,96617.34
2022-09-28T01:17:02.741Z,96622.59
2022-09-28T01:18:30.028Z,96615.06
2022-09-28T01:19:56.485Z,96616.25
2022-09-28T01:21:11.086Z,96614.03
2022-09-28T01:22:31.783Z,96613.25
2022-09-28T01:23:47.807Z,96603.91
2022-09-28T01:25:06.706Z,96599.84
2022-09-28T01:26:39.445Z,96585.94
2022-09-28T01:28:18.249Z,96594.50
2022-09-28T01:29:30.450Z,96590.72
2022-09-28T01:30:56.751Z,96587.66
2022-09-28T01:32:09.395Z,96594.09
2022-09-28T01:33:16.274Z,96579.84
2022-09-28T01:34:25.428Z,96580.59
2022-09-28T01:35:31.102Z,96581.69
2022-09-28T01:36:46.707Z,96583.50
2022-09-28T01:38:10.492Z,96586.09
2022-09-28T01:39:23.952Z,96576.34
2022-09-28T01:40:28.899Z,96575.59
2022-09-28T01:41:36.552Z,96573.59
2022-09-28T01:42:40.258Z,96565.72
2022-09-28T01:43:47.599Z,96562.75
2022-09-28T01:44:52.538Z,96553.03
2022-09-28T01:46:12.366Z,96553.88
2022-09-28T01:47:20.145Z,96558.81
2022-09-28T01:48:35.292Z,96548.78
2022-09-28T01:49:47.151Z,96561.13
2022-09-28T01:50:53.560Z,96556.59
2022-09-28T01:52:03.620Z,96547.66
2022-09-28T01:53:35.079Z,96542.13
2022-09-28T01:54:41.860Z,96533.44
2022-09-28T01:55:47.983Z,96536.81
2022-09-28T01:56:55.911Z,96529.31
2022-09-28T01:58:07.582Z,96531.84
2022-09-28T01:59:41.857Z,96529.66
2022-09-28T02:00:49.226Z,96530.03
2022-09-28T02:02:10.165Z,96530.72
2022-09-28T02:03:16.935Z,96526.16
2022-09-28T02:04:22.868Z,96523.09
2022-09-28T02:05:36.731Z,96525.00
2022-09-28T02:06:48.038Z,96524.06
2022-09-28T02:08:07.307Z,96519.94
2022-09-28T02:09:13.929Z,96514.69
2022-09-28T02:10:21.838Z,96519.81
2022-09-28T02:11:23.817Z,96521.31
2022-09-28T02:12:33.816Z,96514.63
2022-09-28T02:13:44.248Z,96509.47
2022-09-28T02:14:49.377Z,96508.00
2022-09-28T02:15:58.556Z,96508.78
2022-09-28T02:17:00.141Z,96502.78
2022-09-28T02:18:01.893Z,96506.84
2022-09-28T02:19:04.580Z,96501.59
2022-09-28T02:20:07.477Z,96508.34
2022-09-28T02:21:26.356Z,96493.59
2022-09-28T02:22:44.132Z,96499.66
2022-09-28T02:23:57.250Z,96493.66
2022-09-28T02:25:06.135Z,96494.81
2022-09-28T02:26:11.958Z,96497.03
2022-09-28T02:27:18.640Z,96489.84
2022-09-28T02:28:20.123Z,96492.75
2022-09-28T02:29:21.539Z,96491.53
2022-09-28T02:30:23.012Z,96496.47
2022-09-28T02:31:24.603Z,96498.34
2022-09-28T02:32:29.976Z,96494.66
2022-09-28T02:33:36.573Z,96488.91
2022-09-28T02:34:38.089Z,96496.78
2022-09-28T02:35:41.429Z,96492.78
2022-09-28T02:36:44.990Z,96492.88
2022-09-28T02:37:47.354Z,96486.59
2022-09-28T02:38:48.808Z,96475.59
2022-09-28T02:39:50.365Z,96480.38
2022-09-28T02:41:05.356Z,96482.25
2022-09-28T02:42:24.392Z,96481.13
2022-09-28T02:43:56.987Z,96489.06
2022-09-28T02:45:11.739Z,96481.44
2022-09-28T02:46:28.606Z,96480.69
2022-09-28T02:47:33.217Z,96477.72
2022-09-28T02:48:55.772Z,96468.16
2022-09-28T02:50:20.672Z,96472.25
2022-09-28T02:51:42.810Z,96464.28
2022-09-28T02:53:09.542Z,96471.81
2022-09-28T02:54:41.253Z,96465.66
2022-09-28T02:56:11.976Z,96467.84
2022-09-28T02:57:45.591Z,96470.06
2022-09-28T02:58:47.907Z,96475.34
2022-09-28T03:00:10.324Z,96462.22
2022-09-28T03:01:44.195Z,96467.09
2022-09-28T03:03:04.241Z,96467.09
2022-09-28T03:04:18.715Z,96463.22
2022-09-28T03:05:30.011Z,96466.16
2022-09-28T03:06:45.683Z,96456.38
2022-09-28T03:07:49.702Z,96455.63
2022-09-28T03:09:07.065Z,96451.00
2022-09-28T03:10:32.748Z,96455.53
2022-09-28T03:11:39.129Z,96460.06
2022-09-28T03:12:43.489Z,96452.59
2022-09-28T03:13:45.251Z,96443.94
2022-09-28T03:14:46.856Z,96442.09
2022-09-28T03:15:53.309Z,96442.81
2022-09-28T03:16:54.730Z,96444.38
2022-09-28T03:17:57.834Z,96438.41
2022-09-28T03:18:59.262Z,96433.16
2022-09-28T03:20:00.893Z,96438.09
2022-09-28T03:21:04.282Z,96432.09
2022-09-28T03:22:06.057Z,96431.78
2022-09-28T03:23:23.979Z,96429.84
2022-09-28T03:24:26.407Z,96422.28
2022-09-28T03:25:28.052Z,96424.53
2022-09-28T03:26:29.456Z,96425.28
2022-09-28T03:27:31.035Z,96422.56
2022-09-28T03:28:36.243Z,96416.91
2022-09-28T03:29:38.597Z,96412.69
2022-09-28T03:30:40.038Z,96409.78
2022-09-28T03:31:41.501Z,96412.09
2022-09-28T03:32:42.975Z,96409.06
2022-09-28T03:33:44.476Z,96395.91
2022-09-28T03:34:45.903Z,96402.31
2022-09-28T03:35:49.069Z,96400.88
2022-09-28T03:36:50.491Z,96402.09
2022-09-28T03:37:56.543Z,96394.22
2022-09-28T03:38:59.547Z,96394.59
2022-09-28T03:40:01.181Z,96390.25
2022-09-28T03:41:02.697Z,96380.03
2022-09-28T03:42:04.600Z,96391.38
2022-09-28T03:43:05.983Z,96396.25
2022-09-28T03:44:07.417Z,96385.03
2022-09-28T03:45:09.262Z,96385.06
2022-09-28T03:46:10.763Z,96379.81
2022-09-28T03:47:12.858Z,96379.03
2022-09-28T03:48:14.256Z,96378.66
2022-09-28T03:49:15.789Z,96369.66
2022-09-28T03:50:17.303Z,96364.84
2022-09-28T03:51:18.714Z,96368.28
2022-09-28T03:52:20.508Z,96367.22
2022-09-28T03:53:22.684Z,96357.50
2022-09-28T03:54:24.123Z,96361.16
2022-09-28T03:55:25.612Z,96367.53
2022-09-28T03:56:27.039Z,96364.91
2022-09-28T03:57:28.807Z,96365.16
2022-09-28T03:58:30.318Z,96365.78
2022-09-28T03:59:31.813Z,96360.81
2022-09-28T04:00:33.218Z,96357.81
2022-09-28T04:01:34.765Z,96349.97
2022-09-28T04:02:36.332Z,96351.97
2022-09-28T04:03:37.941Z,96347.22
2022-09-28T04:04:39.441Z,96353.94
2022-09-28T04:05:50.079Z,96353.16
2022-09-28T04:06:51.817Z,96343.78
2022-09-28T04:07:56.134Z,96340.81
2022-09-28T04:08:57.652Z,96341.19
2022-09-28T04:09:59.102Z,96344.22
2022-09-28T04:11:01.676Z,96340.44
2022-09-28T04:12:04.602Z,96346.09
2022-09-28T04:13:06.100Z,96342.75
2022-09-28T04:14:07.512Z,96338.56
2022-09-28T04:15:09.350Z,96341.34
2022-09-28T04:16:11.748Z,96333.81
2022-09-28T04:17:13.565Z,96334.63
2022-09-28T04:18:14.988Z,96331.19
2022-09-28T04:19:16.600Z,96324.84
2022-09-28T04:20:18.363Z,96331.19
2022-09-28T04:21:20.918Z,96325.16
2022-09-28T04:22:23.339Z,96324.25
2022-09-28T04:23:25.077Z,96322.78
2022-09-28T04:24:26.619Z,96325.09
2022-09-28T04:25:28.123Z,96334.00
2022-09-28T04:26:29.576Z,96319.25
2022-09-28T04:27:50.080Z,96311.69
2022-09-28T04:29:10.227Z,96321.59
2022-09-28T04:30:11.802Z,96324.00
2022-09-28T04:31:16.766Z,96316.88
2022-09-28T04:32:18.603Z,96316.88
2022-09-28T04:33:20.000Z,96317.59
2022-09-28T04:34:22.810Z,96318.78
2022-09-28T04:35:26.860Z,96313.91
2022-09-28T04:36:28.263Z,96314.19
2022-09-28T04:37:31.555Z,96302.81
2022-09-28T04:38:51.719Z,96304.41
2022-09-28T04:39:54.114Z,96313.59
2022-09-28T04:40:55.574Z,96306.53
2022-09-28T04:41:57.185Z,96311.06
2022-09-28T04:42:58.956Z,96301.63
2022-09-28T04:44:00.447Z,96303.13
2022-09-28T04:45:02.261Z,96301.53
2022-09-28T04:46:06.226Z,96306.38
2022-09-28T04:47:08.054Z,96306.84
2022-09-28T04:48:09.481Z,96297.78
2022-09-28T04:49:11.287Z,96295.47
2022-09-28T04:50:12.814Z,96294.63
2022-09-28T04:51:14.496Z,96291.94
2022-09-28T04:52:18.461Z,96292.44
2022-09-28T04:53:20.346Z,96296.94
2022-09-28T04:54:21.852Z,96295.00
2022-09-28T04:55:23.544Z,96285.63
2022-09-28T04:56:24.968Z,96292.41
2022-09-28T04:57:26.975Z,96299.16
2022-09-28T04:58:29.361Z,96298.16
2022-09-28T04:59:30.788Z,96297.69
2022-09-28T05:00:35.893Z,96286.69
2022-09-28T05:01:37.781Z,96287.91
2022-09-28T05:02:39.342Z,96291.03
2022-09-28T05:03:41.060Z,96291.38
2022-09-28T05:04:42.602Z,96287.66
2022-09-28T05:05:48.940Z,96297.41
2022-09-28T05:06:50.432Z,96292.91
2022-09-28T05:07:52.195Z,96286.00
2022-09-28T05:08:53.962Z,96283.81
2022-09-28T05:09:55.897Z,96288.25
2022-09-28T05:10:59.771Z,96281.06
2022-09-28T05:12:01.427Z,96285.75
2022-09-28T05:13:03.282Z,96286.16
2022-09-28T05:14:05.774Z,96275.63
2022-09-28T05:15:07.580Z,96286.09
2022-09-28T05:16:10.022Z,96276.75
2022-09-28T05:17:11.515Z,96285.34
2022-09-28T05:18:14.148Z,96289.75
2022-09-28T05:19:15.844Z,96287.47
2022-09-28T05:20:17.316Z,96286.44
2022-09-28T05:21:20.270Z,96279.31
2022-09-28T05:22:21.947Z,96277.06
2022-09-28T05:23:23.359Z,96281.72
2022-09-28T05:24:24.789Z,96276.44
2022-09-28T05:25:26.464Z,96274.16
2022-09-28T05:26:27.879Z,96272.63
2022-09-28T05:27:29.708Z,96278.84
2022-09-28T05:28:33.299Z,96270.50
2022-09-28T05:29:34.765Z,96265.66
2022-09-28T05:30:36.628Z,96272.78
2022-09-28T05:31:38.095Z,96267.19
2022-09-28T05:32:47.352Z,96269.06
2022-09-28T05:33:49.187Z,96264.91
2022-09-28T05:34:50.670Z,96270.84
2022-09-28T05:35:55.153Z,96267.00
2022-09-28T05:36:58.788Z,96275.25
2022-09-28T05:38:05.395Z,96286.59
2022-09-28T05:39:06.838Z,96287.00
2022-09-28T05:40:09.104Z,96291.47
2022-09-28T05:41:10.532Z,96294.00
2022-09-28T05:42:12.084Z,96295.78
2022-09-28T05:43:13.535Z,96301.44
2022-09-28T05:44:15.161Z,96288.63
2022-09-28T05:45:16.814Z,96289.66
2022-09-28T05:46:18.585Z,96284.00
2022-09-28T05:47:20.187Z,96288.44
2022-09-28T05:48:21.645Z,96287.72
2022-09-28T05:49:23.122Z,96293.00
2022-09-28T05:50:24.815Z,96295.28
2022-09-28T05:51:26.494Z,96292.03
2022-09-28T05:52:28.320Z,96294.19
2022-09-28T05:53:29.862Z,96286.59
2022-09-28T05:54:31.347Z,96288.84
2022-09-28T05:55:33.234Z,96288.69
2022-09-28T05:56:34.845Z,96283.44
2022-09-28T05:57:37.115Z,96279.41
2022-09-28T05:58:38.579Z,96282.19
2022-09-28T05:59:40.299Z,96285.28
2022-09-28T06:00:42.682Z,96282.28
2022-09-28T06:01:44.587Z,96277.81
2022-09-28T06:02:56.076Z,96275.41
2022-09-28T06:03:57.472Z,96270.06
2022-09-28T06:04:58.886Z,96267.25
2022-09-28T06:06:02.140Z,96272.38
2022-09-28T06:07:03.891Z,96274.94
2022-09-28T06:08:08.246Z,96276.81
2022-09-28T06:09:09.966Z,96277.63
2022-09-28T06:10:11.394Z,96279.13
2022-09-28T06:11:12.841Z,96283.34
2022-09-28T06:12:16.242Z,96284.09
2022-09-28T06:13:17.623Z,96274.25
2022-09-28T06:14:19.065Z,96273.47
2022-09-28T06:15:21.603Z,96282.84
2022-09-28T06:16:23.701Z,96274.66
2022-09-28T06:17:25.673Z,96277.19
2022-09-28T06:18:27.092Z,96276.00
2022-09-28T06:19:28.536Z,96279.00
2022-09-28T06:20:32.551Z,96277.13
2022-09-28T06:21:34.404Z,96277.00
2022-09-28T06:22:35.796Z,96279.66
2022-09-28T06:23:37.222Z,96279.66
2022-09-28T06:24:38.672Z,96286.31
2022-09-28T06:25:40.778Z,96279.88
2022-09-28T06:26:42.568Z,96294.91
2022-09-28T06:27:44.016Z,96293.72
2022-09-28T06:28:45.475Z,96294.50
2022-09-28T06:29:46.861Z,96302.06
2022-09-28T06:30:48.392Z,96302.84
2022-09-28T06:31:50.186Z,96301.53
2022-09-28T06:32:59.671Z,96304.56
2022-09-28T06:34:01.755Z,96303.81
2022-09-28T06:35:03.323Z,96308.03
2022-09-28T06:36:04.971Z,96306.44
2022-09-28T06:37:06.710Z,96314.59
2022-09-28T06:38:08.512Z,96315.75
2022-09-28T06:39:09.891Z,96311.69
2022-09-28T06:40:11.306Z,96314.38
2022-09-28T06:41:13.340Z,96313.66
2022-09-28T06:42:17.069Z,96318.47
2022-09-28T06:43:18.984Z,96316.25
2022-09-28T06:44:20.438Z,96315.69
2022-09-28T06:45:25.249Z,96319.06
2022-09-28T06:46:27.530Z,96314.38
2022-09-28T06:47:28.959Z,96313.97
2022-09-28T06:48:33.423Z,96318.13
2022-09-28T06:49:34.948Z,96312.13
2022-09-28T06:50:39.711Z,96307.59
2022-09-28T06:51:41.125Z,96311.31
2022-09-28T06:52:42.546Z,96308.63
2022-09-28T06:53:43.942Z,96311.94
2022-09-28T06:54:45.378Z,96316.09
2022-09-28T06:55:50.531Z,96315.34
2022-09-28T06:56:53.632Z,96319.91
2022-09-28T06:58:06.408Z,96319.75
2022-09-28T06:59:07.806Z,96327.81
2022-09-28T07:00:10.496Z,96330.03
2022-09-28T07:01:12.459Z,96329.19
2022-09-28T07:02:14.524Z,96329.50
2022-09-28T07:03:19.910Z,96325.97
2022-09-28T07:04:21.366Z,96329.72
2022-09-28T07:05:26.717Z,96333.22
2022-09-28T07:06:29.155Z,96324.09
2022-09-28T07:07:31.338Z,96328.97
2022-09-28T07:08:32.865Z,96331.91
2022-09-28T07:09:37.276Z,96333.28
2022-09-28T07:10:45.055Z,96333.69
2022-09-28T07:11:46.617Z,96331.91
2022-09-28T07:12:47.999Z,96339.78
2022-09-28T07:13:51.139Z,96344.28
2022-09-28T07:14:57.211Z,96346.91
2022-09-28T07:16:02.625Z,96349.84
2022-09-28T07:17:13.839Z,96338.81
2022-09-28T07:18:16.055Z,96333.56
2022-09-28T07:19:17.501Z,96338.31
2022-09-28T07:20:19.726Z,96349.38
2022-09-28T07:21:29.780Z,96350.81
2022-09-28T07:22:41.882Z,96352.63
2022-09-28T07:23:52.224Z,96351.47
2022-09-28T07:24:55.124Z,96354.25
2022-09-28T07:25:58.213Z,96358.75
2022-09-28T07:27:00.024Z,96366.91
2022-09-28T07:28:02.954Z,96369.47
2022-09-28T07:29:04.900Z,96369.91
2022-09-28T07:30:07.029Z,96367.47
2022-09-28T07:31:09.977Z,96373.06
2022-09-28T07:32:11.359Z,96371.06
2022-09-28T07:33:14.396Z,96377.16
2022-09-28T07:34:17.395Z,96370.72
2022-09-28T07:35:18.921Z,96380.53
2022-09-28T07:36:21.222Z,96379.78
2022-09-28T07:37:24.179Z,96376.06
2022-09-28T07:38:26.054Z,96377.22
2022-09-28T07:39:27.443Z,96373.03
2022-09-28T07:40:59.619Z,96372.13
2022-09-28T07:42:03.015Z,96378.81
2022-09-28T07:43:05.706Z,96382.00
2022-09-28T07:44:07.434Z,96382.59
2022-09-28T07:45:09.288Z,96380.28
2022-09-28T07:46:13.712Z,96372.00
2022-09-28T07:47:15.508Z,96385.88
2022-09-28T07:48:18.812Z,96385.47
2022-09-28T07:49:22.423Z,96384.78
2022-09-28T07:50:23.906Z,96390.78
2022-09-28T07:51:25.920Z,96386.63
2022-09-28T07:52:28.734Z,96396.41
2022-09-28T07:53:30.983Z,96398.97
2022-09-28T07:54:32.364Z,96397.13
2022-09-28T07:55:34.382Z,96404.38
2022-09-28T07:56:36.146Z,96398.41
2022-09-28T07:57:37.604Z,96405.56
2022-09-28T07:58:39.583Z,96403.66
2022-09-28T07:59:40.970Z,96401.03
2022-09-28T08:00:42.496Z,96396.22
2022-09-28T08:01:44.378Z,96403.34
2022-09-28T08:02:45.894Z,96405.69
2022-09-28T08:03:47.968Z,96402.19
2022-09-28T08:04:50.299Z,96406.72
2022-09-28T08:05:51.780Z,96408.22
2022-09-28T08:06:53.609Z,96407.56
2022-09-28T08:07:57.801Z,96407.56
2022-09-28T08:09:00.704Z,96411.25
2022-09-28T08:10:02.114Z,96405.56
2022-09-28T08:11:06.822Z,96414.63
2022-09-28T08:12:08.999Z,96409.19
2022-09-28T08:13:10.435Z,96410.28
2022-09-28T08:14:11.886Z,96414.31
2022-09-28T08:15:13.327Z,96421.38
2022-09-28T08:16:15.163Z,96420.13
2022-09-28T08:17:16.855Z,96426.91
2022-09-28T08:18:18.997Z,96427.09
2022-09-28T08:19:20.399Z,96428.44
2022-09-28T08:20:41.039Z,96429.69
2022-09-28T08:21:45.522Z,96435.59
2022-09-28T08:22:46.924Z,96438.56
2022-09-28T08:23:48.376Z,96437.75
2022-09-28T08:24:49.814Z,96438.06
2022-09-28T08:25:54.764Z,96443.41
2022-09-28T08:26:57.429Z,96446.94
2022-09-28T08:27:58.983Z,96446.28
2022-09-28T08:29:00.363Z,96454.50
2022-09-28T08:30:01.760Z,96456.16
2022-09-28T08:31:03.350Z,96454.19
2022-09-28T08:32:08.187Z,96458.34
2022-09-28T08:33:09.726Z,96457.97
2022-09-28T08:34:11.386Z,96457.44
2022-09-28T08:35:13.243Z,96450.06
2022-09-28T08:36:14.687Z,96451.28
2022-09-28T08:37:16.467Z,96455.66
2022-09-28T08:38:18.335Z,96455.03
2022-09-28T08:39:19.804Z,96455.47
2022-09-28T08:40:24.830Z,96456.78
2022-09-28T08:41:51.315Z,96460.13
2022-09-28T08:42:58.050Z,96462.56
2022-09-28T08:44:14.514Z,96460.19
2022-09-28T08:45:31.515Z,96458.31
2022-09-28T08:46:41.262Z,96465.44
2022-09-28T08:48:08.521Z,96464.69
2022-09-28T08:49:32.580Z,96468.84
2022-09-28T08:50:41.637Z,96461.31
2022-09-28T08:51:57.413Z,96468.84
2022-09-28T08:53:05.594Z,96473.28
2022-09-28T08:54:35.675Z,96466.25
2022-09-28T08:55:39.592Z,96467.66
2022-09-28T08:56:47.419Z,96464.47
2022-09-28T08:57:53.340Z,96474.00
2022-09-28T08:58:59.824Z,96474.03
2022-09-28T09:00:02.558Z,96479.88
2022-09-28T09:01:07.479Z,96468.94
2022-09-28T09:02:18.399Z,96485.38
2022-09-28T09:03:35.919Z,96479.06
2022-09-28T09:04:37.556Z,96475.00
2022-09-28T09:06:03.709Z,96481.09
2022-09-28T09:07:43.137Z,96484.34
2022-09-28T09:09:09.229Z,96486.47
2022-09-28T09:10:47.014Z,96482.88
2022-09-28T09:11:57.283Z,96486.75
2022-09-28T09:13:19.070Z,96492.91
2022-09-28T09:14:32.211Z,96493.09
2022-09-28T09:15:57.529Z,96492.50
2022-09-28T09:17:34.647Z,96491.81
2022-09-28T09:19:00.132Z,96494.03
2022-09-28T09:20:25.565Z,96495.81
2022-09-28T09:21:41.961Z,96500.50
2022-09-28T09:23:00.769Z,96494.91
2022-09-28T09:24:27.853Z,96505.56
2022-09-28T09:25:45.955Z,96502.13
2022-09-28T09:26:52.856Z,96509.53
2022-09-28T09:28:03.311Z,96515.28
2022-09-28T09:29:19.956Z,96522.59
2022-09-28T09:30:30.241Z,96516.13
2022-09-28T09:31:54.771Z,96521.41
2022-09-28T09:33:08.417Z,96528.78
2022-09-28T09:34:19.081Z,96520.31
2022-09-28T09:35:40.882Z,96522.22
2022-09-28T09:37:07.885Z,96530.22
2022-09-28T09:38:43.497Z,96529.41
2022-09-28T09:40:07.377Z,96523.94
2022-09-28T09:41:36.416Z,96526.44
2022-09-28T09:43:05.763Z,96527.31
2022-09-28T09:44:28.597Z,96521.72
2022-09-28T09:45:43.394Z,96529.09
2022-09-28T09:47:02.323Z,96527.44
2022-09-28T09:48:11.127Z,96528.81
2022-09-28T09:49:26.879Z,96540.28
2022-09-28T09:50:39.442Z,96529.28
2022-09-28T09:52:00.561Z,96534.38
2022-09-28T09:53:11.896Z,96532.72
2022-09-28T09:54:26.791Z,96527.84
2022-09-28T09:55:37.181Z,96539.69
2022-09-28T09:56:55.273Z,96542.50
2022-09-28T09:58:00.085Z,96547.28
2022-09-28T09:59:14.019Z,96543.84
2022-09-28T10:00:16.679Z,96545.34
2022-09-28T10:01:22.926Z,96552.28
2022-09-28T10:02:35.422Z,96553.28
2022-09-28T10:03:42.200Z,96544.66
2022-09-28T10:04:46.687Z,96544.75
2022-09-28T10:06:06.887Z,96551.66
2022-09-28T10:07:19.096Z,96548.81
2022-09-28T10:08:23.731Z,96555.84
2022-09-28T10:09:34.789Z,96555.47
2022-09-28T10:10:51.461Z,96558.06
2022-09-28T10:11:54.358Z,96562.56
2022-09-28T10:12:56.416Z,96551.03
2022-09-28T10:13:58.414Z,96549.44
2022-09-28T10:15:02.767Z,96557.06
2022-09-28T10:16:06.161Z,96554.38
2022-09-28T10:17:07.685Z,96555.13
2022-09-28T10:18:15.279Z,96552.75
2022-09-28T10:19:19.490Z,96554.16
2022-09-28T10:20:22.981Z,96565.69
2022-09-28T10:21:25.362Z,96556.91
2022-09-28T10:22:28.732Z,96561.94
2022-09-28T10:23:34.172Z,96567.72
2022-09-28T10:24:41.335Z,96570.84
2022-09-28T10:25:45.154Z,96567.56
2022-09-28T10:26:50.748Z,96578.34
2022-09-28T10:27:52.480Z,96570.97
2022-09-28T10:29:21.311Z,96572.97
2022-09-28T10:30:25.118Z,96572.69
2022-09-28T10:31:36.027Z,96572.69
2022-09-28T10:32:49.073Z,96570.31
2022-09-28T10:33:53.350Z,96576.31
2022-09-28T10:35:21.592Z,96575.34
2022-09-28T10:36:26.240Z,96580.91
2022-09-28T10:37:28.172Z,96577.06
2022-09-28T10:38:30.876Z,96575.50
2022-09-28T10:39:36.893Z,96584.75
2022-09-28T10:40:51.605Z,96578.66
2022-09-28T10:41:54.290Z,96574.50
2022-09-28T10:43:05.182Z,96580.44
2022-09-28T10:44:06.977Z,96582.16
2022-09-28T10:45:31.604Z,96578.84
2022-09-28T10:46:37.579Z,96580.25
2022-09-28T10:47:44.753Z,96570.13
2022-09-28T10:48:56.416Z,96578.50
2022-09-28T10:49:59.115Z,96574.94
2022-09-28T10:51:05.712Z,96576.03
2022-09-28T10:52:31.793Z,96572.13
2022-09-28T10:53:37.221Z,96574.13
2022-09-28T10:54:52.992Z,96574.53
2022-09-28T10:56:03.910Z,96570.13
2022-09-28T10:57:27.329Z,96575.22
2022-09-28T10:58:40.661Z,96567.47
2022-09-28T10:59:42.310Z,96571.63
2022-09-28T11:00:44.979Z,96574.19
2022-09-28T11:01:46.977Z,96561.22
2022-09-28T11:02:48.610Z,96561.16
2022-09-28T11:04:03.564Z,96569.09
2022-09-28T11:05:07.267Z,96559.19
2022-09-28T11:06:09.122Z,96562.31
2022-09-28T11:07:32.617Z,96558.00
2022-09-28T11:08:45.755Z,96557.44
2022-09-28T11:09:49.488Z,96560.13
2022-09-28T11:11:08.851Z,96564.25
2022-09-28T11:12:15.949Z,96555.03
2022-09-28T11:13:17.377Z,96560.56
2022-09-28T11:14:30.110Z,96564.19
2022-09-28T11:15:33.352Z,96547.19
2022-09-28T11:16:38.820Z,96558.59
2022-09-28T11:17:44.457Z,96550.75
2022-09-28T11:18:45.893Z,96551.91
2022-09-28T11:19:47.335Z,96551.56
2022-09-28T11:20:49.529Z,96549.53
2022-09-28T11:21:51.383Z,96555.63
2022-09-28T11:22:55.679Z,96555.50
2022-09-28T11:24:07.018Z,96554.34
2022-09-28T11:25:17.446Z,96562.34
2022-09-28T11:26:19.137Z,96556.78
2022-09-28T11:27:26.090Z,96561.31
2022-09-28T11:28:35.925Z,96548.38
2022-09-28T11:29:41.754Z,96562.06
2022-09-28T11:30:58.024Z,96558.28
2022-09-28T11:32:03.302Z,96551.97
2022-09-28T11:33:15.083Z,96554.88
2022-09-28T11:34:36.532Z,96555.75
2022-09-28T11:36:05.101Z,96554.41
2022-09-28T11:37:31.590Z,96555.59
2022-09-28T11:38:39.584Z,96554.38
2022-09-28T11:39:43.904Z,96553.38
2022-09-28T11:41:20.578Z,96559.19
2022-09-28T11:42:28.352Z,96551.41
2022-09-28T11:43:55.841Z,96557.72
2022-09-28T11:45:03.408Z,96562.41
2022-09-28T11:46:19.721Z,96559.88
2022-09-28T11:47:32.032Z,96563.94
2022-09-28T11:48:44.060Z,96562.41
2022-09-28T11:49:52.405Z,96559.16
2022-09-28T11:51:03.818Z,96554.94
2022-09-28T11:52:23.130Z,96558.63
2022-09-28T11:53:34.673Z,96558.69
2022-09-28T11:54:44.383Z,96560.53
2022-09-28T11:56:07.924Z,96554.94
2022-09-28T11:57:20.899Z,96551.59
2022-09-28T11:58:37.636Z,96562.81
2022-09-28T11:59:52.362Z,96564.22
2022-09-28T12:01:18.595Z,96560.88
2022-09-28T12:02:30.187Z,96561.41
2022-09-28T12:03:42.658Z,96552.88
2022-09-28T12:04:52.168Z,96562.75
2022-09-28T12:06:01.124Z,96572.28
2022-09-28T12:07:23.709Z,96562.16
2022-09-28T12:08:30.230Z,96560.00
2022-09-28T12:09:40.443Z,96568.53
2022-09-28T12:10:57.209Z,96565.78
2022-09-28T12:12:02.774Z,96566.31
2022-09-28T12:13:11.978Z,96562.34
2022-09-28T12:14:21.652Z,96563.94
2022-09-28T12:15:38.187Z,96568.63
2022-09-28T12:17:08.254Z,96565.47
2022-09-28T12:18:32.967Z,96566.66
2022-09-28T12:20:00.179Z,96568.78
2022-09-28T12:21:21.789Z,96564.38
2022-09-28T12:22:30.173Z,96561.38
2022-09-28T12:23:35.748Z,96573.78
2022-09-28T12:24:42.444Z,96569.72
2022-09-28T12:26:21.124Z,96570.91
2022-09-28T12:27:25.544Z,96568.50
2022-09-28T12:28:37.217Z,96574.28
2022-09-28T12:29:41.635Z,96560.81
2022-09-28T12:30:45.985Z,96570.81
2022-09-28T12:31:58.294Z,96570.59
2022-09-28T12:33:12.485Z,96571.44
2022-09-28T12:34:13.974Z,96575.63
2022-09-28T12:35:50.894Z,96566.69
2022-09-28T12:36:55.108Z,96571.00
2022-09-28T12:38:09.161Z,96580.09
2022-09-28T12:39:31.043Z,96572.72
2022-09-28T12:40:58.611Z,96577.78
2022-09-28T12:42:12.931Z,96581.56
2022-09-28T12:43:33.703Z,96577.00
2022-09-28T12:44:59.830Z,96579.53
2022-09-28T12:46:22.382Z,96577.16
2022-09-28T12:47:57.511Z,96584.88
2022-09-28T12:51:29.589Z,96575.22
2022-09-28T12:53:03.161Z,96572.38
2022-09-28T12:54:25.412Z,96572.72
2022-09-28T12:55:56.462Z,96584.88
2022-09-28T12:57:30.098Z,96577.16
2022-09-28T12:59:01.098Z,96580.00
2022-09-28T13:00:08.846Z,96585.06
2022-09-28T13:01:23.169Z,96578.31
2022-09-28T13:02:41.990Z,96579.28
2022-09-28T13:04:04.850Z,96576.88
2022-09-28T13:05:12.270Z,96585.69
2022-09-28T13:06:19.626Z,96580.16
2022-09-28T13:07:33.350Z,96582.97
2022-09-28T13:08:40.838Z,96579.59
2022-09-28T13:09:49.684Z,96580.16
2022-09-28T13:11:09.856Z,96584.41
2022-09-28T13:12:20.890Z,96583.16
2022-09-28T13:14:06.298Z,96584.69
2022-09-28T13:15:27.814Z,96580.47
2022-09-28T13:16:46.019Z,96578.34
2022-09-28T13:18:12.934Z,96575.72
2022-09-28T13:19:25.398Z,96580.00